sensor_id;sensor_type;location;lat;lon;timestamp;pressure;altitude;pressure_sealevel;temperature;humidity
61568;BME280;47462;59.172;17.196;2024-03-17T00:00:04;100691.00;;;-1.59;95.60
61568;BME280;47462;59.172;17.196;2024-03-17T00:02:30;100687.44;;;-1.66;95.21
61568;BME280;47462;59.172;17.196;2024-03-17T00:04:55;100690.97;;;-1.60;95.76
61568;BME280;47462;59.172;17.196;2024-03-17T00:07:22;100697.72;;;-1.63;95.61
61568;BME280;47462;59.172;17.196;2024-03-17T00:09:47;100698.53;;;-1.65;95.52
61568;BME280;47462;59.172;17.196;2024-03-17T00:12:13;100699.41;;;-1.65;95.56
61568;BME280;47462;59.172;17.196;2024-03-17T00:14:39;100718.00;;;-1.72;95.42
61568;BME280;47462;59.172;17.196;2024-03-17T00:17:04;100714.69;;;-1.68;95.63
61568;BME280;47462;59.172;17.196;2024-03-17T00:19:30;100736.06;;;-1.64;95.84
61568;BME280;47462;59.172;17.196;2024-03-17T00:21:55;100718.13;;;-1.66;95.58
61568;BME280;47462;59.172;17.196;2024-03-17T00:24:21;100732.56;;;-1.69;95.55
61568;BME280;47462;59.172;17.196;2024-03-17T00:26:46;100738.44;;;-1.73;94.61
61568;BME280;47462;59.172;17.196;2024-03-17T00:29:12;100738.53;;;-1.69;95.20
61568;BME280;47462;59.172;17.196;2024-03-17T00:31:38;100745.38;;;-1.68;94.01
61568;BME280;47462;59.172;17.196;2024-03-17T00:34:03;100758.03;;;-1.75;93.98
61568;BME280;47462;59.172;17.196;2024-03-17T00:36:32;100743.53;;;-1.75;94.14
61568;BME280;47462;59.172;17.196;2024-03-17T00:38:58;100746.94;;;-1.76;94.43
61568;BME280;47462;59.172;17.196;2024-03-17T00:41:23;100736.56;;;-1.82;94.00
61568;BME280;47462;59.172;17.196;2024-03-17T00:43:49;100770.56;;;-1.86;93.13
61568;BME280;47462;59.172;17.196;2024-03-17T00:46:20;100768.97;;;-1.81;92.81
61568;BME280;47462;59.172;17.196;2024-03-17T00:48:49;100780.06;;;-1.82;91.96
61568;BME280;47462;59.172;17.196;2024-03-17T00:51:15;100784.41;;;-1.76;92.41
61568;BME280;47462;59.172;17.196;2024-03-17T00:53:44;100796.44;;;-1.74;92.27
61568;BME280;47462;59.172;17.196;2024-03-17T00:56:10;100783.59;;;-1.75;92.59
61568;BME280;47462;59.172;17.196;2024-03-17T00:58:36;100798.94;;;-1.75;92.97
61568;BME280;47462;59.172;17.196;2024-03-17T01:01:01;100800.59;;;-1.79;92.79
61568;BME280;47462;59.172;17.196;2024-03-17T01:03:27;100810.81;;;-1.79;92.60
61568;BME280;47462;59.172;17.196;2024-03-17T01:05:53;100811.63;;;-1.80;93.24
61568;BME280;47462;59.172;17.196;2024-03-17T01:08:19;100824.50;;;-1.77;93.01
61568;BME280;47462;59.172;17.196;2024-03-17T01:10:46;100843.31;;;-1.75;93.43
61568;BME280;47462;59.172;17.196;2024-03-17T01:13:15;100826.09;;;-1.82;93.01
61568;BME280;47462;59.172;17.196;2024-03-17T01:15:41;100845.78;;;-1.78;93.04
61568;BME280;47462;59.172;17.196;2024-03-17T01:18:07;100848.28;;;-1.81;92.45
61568;BME280;47462;59.172;17.196;2024-03-17T01:20:35;100835.38;;;-1.86;92.50
61568;BME280;47462;59.172;17.196;2024-03-17T01:23:01;100840.44;;;-1.87;93.83
61568;BME280;47462;59.172;17.196;2024-03-17T01:25:27;100848.97;;;-1.88;94.00
61568;BME280;47462;59.172;17.196;2024-03-17T01:27:55;100857.44;;;-1.91;93.63
61568;BME280;47462;59.172;17.196;2024-03-17T01:30:20;100850.66;;;-1.89;93.99
61568;BME280;47462;59.172;17.196;2024-03-17T01:32:46;100857.50;;;-1.88;94.00
61568;BME280;47462;59.172;17.196;2024-03-17T01:35:12;100854.91;;;-1.89;94.15
61568;BME280;47462;59.172;17.196;2024-03-17T01:37:38;100850.59;;;-1.90;94.19
61568;BME280;47462;59.172;17.196;2024-03-17T01:40:03;100859.06;;;-1.94;94.49
61568;BME280;47462;59.172;17.196;2024-03-17T01:42:39;100846.94;;;-2.02;95.08
61568;BME280;47462;59.172;17.196;2024-03-17T01:47:43;100864.31;;;-1.88;94.40
61568;BME280;47462;59.172;17.196;2024-03-17T01:50:09;100866.09;;;-1.84;94.93
61568;BME280;47462;59.172;17.196;2024-03-17T01:52:37;100869.56;;;-1.84;94.63
61568;BME280;47462;59.172;17.196;2024-03-17T01:55:04;100871.22;;;-1.84;94.92
61568;BME280;47462;59.172;17.196;2024-03-17T01:57:30;100876.34;;;-1.84;95.19
61568;BME280;47462;59.172;17.196;2024-03-17T01:59:56;100900.22;;;-1.85;95.44
61568;BME280;47462;59.172;17.196;2024-03-17T02:02:22;100882.16;;;-1.91;95.65
61568;BME280;47462;59.172;17.196;2024-03-17T02:04:48;100898.31;;;-1.92;96.00
61568;BME280;47462;59.172;17.196;2024-03-17T02:07:14;100898.50;;;-1.85;95.90
61568;BME280;47462;59.172;17.196;2024-03-17T02:09:40;100907.16;;;-1.80;95.87
61568;BME280;47462;59.172;17.196;2024-03-17T02:12:07;100914.88;;;-1.78;95.92
61568;BME280;47462;59.172;17.196;2024-03-17T02:14:33;100906.22;;;-1.83;96.32
61568;BME280;47462;59.172;17.196;2024-03-17T02:16:59;100931.06;;;-1.79;96.45
61568;BME280;47462;59.172;17.196;2024-03-17T02:19:25;100927.66;;;-1.78;96.63
61568;BME280;47462;59.172;17.196;2024-03-17T02:21:50;100931.84;;;-1.82;96.31
61568;BME280;47462;59.172;17.196;2024-03-17T02:24:16;100922.34;;;-1.86;97.05
61568;BME280;47462;59.172;17.196;2024-03-17T02:26:41;100935.81;;;-1.93;97.43
61568;BME280;47462;59.172;17.196;2024-03-17T02:29:07;100941.75;;;-1.94;97.36
61568;BME280;47462;59.172;17.196;2024-03-17T02:31:32;100933.19;;;-1.96;97.56
61568;BME280;47462;59.172;17.196;2024-03-17T02:33:57;100947.50;;;-2.03;97.57
61568;BME280;47462;59.172;17.196;2024-03-17T02:36:25;100946.72;;;-2.00;98.14
61568;BME280;47462;59.172;17.196;2024-03-17T02:38:54;100956.91;;;-2.02;98.59
61568;BME280;47462;59.172;17.196;2024-03-17T02:41:42;100950.09;;;-2.01;99.13
61568;BME280;47462;59.172;17.196;2024-03-17T02:44:07;100965.50;;;-1.98;99.34
61568;BME280;47462;59.172;17.196;2024-03-17T02:46:33;100967.28;;;-1.95;99.11
61568;BME280;47462;59.172;17.196;2024-03-17T02:48:59;100969.03;;;-1.94;99.08
61568;BME280;47462;59.172;17.196;2024-03-17T02:51:25;100974.13;;;-1.96;99.06
61568;BME280;47462;59.172;17.196;2024-03-17T02:53:51;100979.22;;;-1.96;99.12
61568;BME280;47462;59.172;17.196;2024-03-17T02:56:18;100969.94;;;-1.92;99.00
61568;BME280;47462;59.172;17.196;2024-03-17T02:58:44;100988.66;;;-1.93;99.11
61568;BME280;47462;59.172;17.196;2024-03-17T03:01:11;100995.44;;;-1.95;98.96
61568;BME280;47462;59.172;17.196;2024-03-17T03:03:37;101013.41;;;-1.92;99.05
61568;BME280;47462;59.172;17.196;2024-03-17T03:06:03;101018.53;;;-1.92;98.72
61568;BME280;47462;59.172;17.196;2024-03-17T03:08:32;101014.16;;;-1.97;98.85
61568;BME280;47462;59.172;17.196;2024-03-17T03:10:59;101026.22;;;-1.92;98.71
61568;BME280;47462;59.172;17.196;2024-03-17T03:13:24;101039.81;;;-1.93;98.64
61568;BME280;47462;59.172;17.196;2024-03-17T03:15:50;101028.81;;;-1.91;98.88
61568;BME280;47462;59.172;17.196;2024-03-17T03:18:16;101041.56;;;-1.92;98.97
61568;BME280;47462;59.172;17.196;2024-03-17T03:20:41;101040.88;;;-1.87;98.89
61568;BME280;47462;59.172;17.196;2024-03-17T03:23:07;101050.31;;;-1.84;99.48
61568;BME280;47462;59.172;17.196;2024-03-17T03:25:32;101052.59;;;-1.93;99.18
61568;BME280;47462;59.172;17.196;2024-03-17T03:27:57;101050.94;;;-1.93;99.12
61568;BME280;47462;59.172;17.196;2024-03-17T03:30:26;101045.84;;;-1.91;99.53
61568;BME280;47462;59.172;17.196;2024-03-17T03:32:52;101055.97;;;-1.96;99.42
61568;BME280;47462;59.172;17.196;2024-03-17T03:35:18;101059.41;;;-1.94;99.14
61568;BME280;47462;59.172;17.196;2024-03-17T03:37:43;101062.75;;;-1.97;99.30
61568;BME280;47462;59.172;17.196;2024-03-17T03:40:09;101062.56;;;-2.03;97.88
61568;BME280;47462;59.172;17.196;2024-03-17T03:42:44;101072.75;;;-2.04;97.99
61568;BME280;47462;59.172;17.196;2024-03-17T03:45:10;101071.00;;;-2.05;97.82
61568;BME280;47462;59.172;17.196;2024-03-17T03:47:42;101064.22;;;-2.05;97.74
61568;BME280;47462;59.172;17.196;2024-03-17T03:50:12;101077.09;;;-2.02;97.38
61568;BME280;47462;59.172;17.196;2024-03-17T03:52:39;101065.22;;;-2.00;96.45
61568;BME280;47462;59.172;17.196;2024-03-17T03:55:09;101072.63;;;-2.09;96.13
61568;BME280;47462;59.172;17.196;2024-03-17T03:57:40;101092.41;;;-2.03;96.18
61568;BME280;47462;59.172;17.196;2024-03-17T04:00:07;101088.19;;;-2.01;95.60
61568;BME280;47462;59.172;17.196;2024-03-17T04:02:38;101089.94;;;-2.00;95.44
61568;BME280;47462;59.172;17.196;2024-03-17T04:05:04;101099.31;;;-1.99;95.18
61568;BME280;47462;59.172;17.196;2024-03-17T04:07:30;101095.81;;;-2.03;94.63
61568;BME280;47462;59.172;17.196;2024-03-17T04:09:55;101100.91;;;-2.04;93.79
61568;BME280;47462;59.172;17.196;2024-03-17T04:12:21;101100.97;;;-2.01;92.90
61568;BME280;47462;59.172;17.196;2024-03-17T04:14:46;101119.03;;;-1.97;92.54
61568;BME280;47462;59.172;17.196;2024-03-17T04:17:17;101117.31;;;-1.98;91.67
61568;BME280;47462;59.172;17.196;2024-03-17T04:19:44;101117.00;;;-2.07;91.15
61568;BME280;47462;59.172;17.196;2024-03-17T04:22:11;101132.66;;;-1.98;91.72
61568;BME280;47462;59.172;17.196;2024-03-17T04:24:36;101142.03;;;-1.97;91.38
61568;BME280;47462;59.172;17.196;2024-03-17T04:27:02;101136.03;;;-1.99;91.41
61568;BME280;47462;59.172;17.196;2024-03-17T04:29:29;101147.19;;;-1.95;90.74
61568;BME280;47462;59.172;17.196;2024-03-17T04:31:55;101154.91;;;-1.93;90.76
61568;BME280;47462;59.172;17.196;2024-03-17T04:34:21;101164.25;;;-1.95;90.79
61568;BME280;47462;59.172;17.196;2024-03-17T04:36:46;101158.28;;;-1.96;90.68
61568;BME280;47462;59.172;17.196;2024-03-17T04:39:12;101164.06;;;-2.02;90.04
61568;BME280;47462;59.172;17.196;2024-03-17T04:41:38;101166.66;;;-2.00;89.98
61568;BME280;47462;59.172;17.196;2024-03-17T04:44:06;101178.69;;;-1.98;90.28
61568;BME280;47462;59.172;17.196;2024-03-17T04:46:32;101188.00;;;-2.00;89.62
61568;BME280;47462;59.172;17.196;2024-03-17T04:48:57;101199.88;;;-2.02;89.17
61568;BME280;47462;59.172;17.196;2024-03-17T04:51:23;101199.97;;;-1.99;88.92
61568;BME280;47462;59.172;17.196;2024-03-17T04:53:49;101217.81;;;-2.00;89.42
61568;BME280;47462;59.172;17.196;2024-03-17T04:56:15;101203.25;;;-2.03;88.57
61568;BME280;47462;59.172;17.196;2024-03-17T04:58:40;101218.63;;;-2.01;88.46
61568;BME280;47462;59.172;17.196;2024-03-17T05:01:06;101217.81;;;-2.00;88.70
61568;BME280;47462;59.172;17.196;2024-03-17T05:03:32;101219.44;;;-2.02;88.42
61568;BME280;47462;59.172;17.196;2024-03-17T05:06:02;101226.25;;;-2.03;88.76
61568;BME280;47462;59.172;17.196;2024-03-17T05:08:29;101230.56;;;-2.02;88.61
61568;BME280;47462;59.172;17.196;2024-03-17T05:11:02;101227.97;;;-2.03;88.37
61568;BME280;47462;59.172;17.196;2024-03-17T05:13:35;101238.34;;;-1.99;88.59
61568;BME280;47462;59.172;17.196;2024-03-17T05:16:01;101245.06;;;-2.01;87.64
61568;BME280;47462;59.172;17.196;2024-03-17T05:18:26;101252.06;;;-1.95;87.29
61568;BME280;47462;59.172;17.196;2024-03-17T05:20:59;101237.41;;;-2.01;85.87
61568;BME280;47462;59.172;17.196;2024-03-17T05:23:29;101252.75;;;-2.01;85.45
61568;BME280;47462;59.172;17.196;2024-03-17T05:25:57;101254.53;;;-1.98;85.42
61568;BME280;47462;59.172;17.196;2024-03-17T05:28:24;101270.66;;;-2.01;84.51
61568;BME280;47462;59.172;17.196;2024-03-17T05:30:50;101286.75;;;-2.05;84.97
61568;BME280;47462;59.172;17.196;2024-03-17T05:33:20;101277.47;;;-2.01;84.90
61568;BME280;47462;59.172;17.196;2024-03-17T05:35:54;101295.63;;;-1.93;84.97
61568;BME280;47462;59.172;17.196;2024-03-17T05:38:21;101307.50;;;-1.95;85.08
61568;BME280;47462;59.172;17.196;2024-03-17T05:40:54;101304.06;;;-1.96;85.08
61568;BME280;47462;59.172;17.196;2024-03-17T05:43:21;101299.78;;;-1.97;84.84
61568;BME280;47462;59.172;17.196;2024-03-17T05:45:47;101327.84;;;-1.99;84.40
61568;BME280;47462;59.172;17.196;2024-03-17T05:48:13;101340.75;;;-1.95;84.51
61568;BME280;47462;59.172;17.196;2024-03-17T05:50:38;101339.88;;;-1.96;84.09
61568;BME280;47462;59.172;17.196;2024-03-17T05:53:04;101341.75;;;-1.90;84.37
61568;BME280;47462;59.172;17.196;2024-03-17T05:55:30;101335.94;;;-1.86;84.24
61568;BME280;47462;59.172;17.196;2024-03-17T05:57:56;101352.19;;;-1.84;84.07
61568;BME280;47462;59.172;17.196;2024-03-17T06:00:22;101348.78;;;-1.85;83.87
61568;BME280;47462;59.172;17.196;2024-03-17T06:02:47;101356.50;;;-1.83;83.60
61568;BME280;47462;59.172;17.196;2024-03-17T06:05:14;101353.28;;;-1.77;84.04
61568;BME280;47462;59.172;17.196;2024-03-17T06:07:40;101352.28;;;-1.81;82.99
61568;BME280;47462;59.172;17.196;2024-03-17T06:10:06;101360.91;;;-1.79;83.96
61568;BME280;47462;59.172;17.196;2024-03-17T06:12:32;101366.94;;;-1.77;83.46
61568;BME280;47462;59.172;17.196;2024-03-17T06:14:57;101375.75;;;-1.67;83.52
61568;BME280;47462;59.172;17.196;2024-03-17T06:17:23;101373.91;;;-1.73;83.21
61568;BME280;47462;59.172;17.196;2024-03-17T06:19:49;101373.78;;;-1.76;82.24
61568;BME280;47462;59.172;17.196;2024-03-17T06:22:15;101362.63;;;-1.78;82.61
61568;BME280;47462;59.172;17.196;2024-03-17T06:24:40;101395.03;;;-1.78;80.67
61568;BME280;47462;59.172;17.196;2024-03-17T06:27:09;101383.19;;;-1.75;80.62
61568;BME280;47462;59.172;17.196;2024-03-17T06:29:34;101399.38;;;-1.76;80.35
61568;BME280;47462;59.172;17.196;2024-03-17T06:32:00;101405.41;;;-1.74;78.92
61568;BME280;47462;59.172;17.196;2024-03-17T06:34:26;101415.69;;;-1.72;79.09
61568;BME280;47462;59.172;17.196;2024-03-17T06:36:52;101425.13;;;-1.71;78.12
61568;BME280;47462;59.172;17.196;2024-03-17T06:39:17;101429.16;;;-1.78;77.24
61568;BME280;47462;59.172;17.196;2024-03-17T06:41:45;101422.31;;;-1.79;78.29
61568;BME280;47462;59.172;17.196;2024-03-17T06:44:10;101433.19;;;-1.85;78.02
61568;BME280;47462;59.172;17.196;2024-03-17T06:46:36;101432.25;;;-1.88;77.74
61568;BME280;47462;59.172;17.196;2024-03-17T06:49:02;101437.25;;;-1.91;78.46
61568;BME280;47462;59.172;17.196;2024-03-17T06:51:27;101448.34;;;-1.91;78.46
61568;BME280;47462;59.172;17.196;2024-03-17T06:53:53;101455.16;;;-1.91;79.10
61568;BME280;47462;59.172;17.196;2024-03-17T06:56:18;101463.81;;;-1.88;78.41
61568;BME280;47462;59.172;17.196;2024-03-17T06:58:44;101449.31;;;-1.87;78.11
61568;BME280;47462;59.172;17.196;2024-03-17T07:01:09;101454.38;;;-1.89;77.60
61568;BME280;47462;59.172;17.196;2024-03-17T07:03:35;101470.56;;;-1.90;77.31
61568;BME280;47462;59.172;17.196;2024-03-17T07:06:01;101475.09;;;-1.81;76.81
61568;BME280;47462;59.172;17.196;2024-03-17T07:08:28;101479.56;;;-1.75;76.83
61568;BME280;47462;59.172;17.196;2024-03-17T07:13:28;101469.59;;;-1.68;75.86
61568;BME280;47462;59.172;17.196;2024-03-17T07:15:55;101489.78;;;-1.51;76.48
61568;BME280;47462;59.172;17.196;2024-03-17T07:18:20;101498.47;;;-1.46;74.95
61568;BME280;47462;59.172;17.196;2024-03-17T07:20:46;101488.22;;;-1.46;75.41
61568;BME280;47462;59.172;17.196;2024-03-17T07:23:14;101491.59;;;-1.47;74.74
61568;BME280;47462;59.172;17.196;2024-03-17T07:25:40;101510.16;;;-1.54;75.06
61568;BME280;47462;59.172;17.196;2024-03-17T07:28:08;101496.31;;;-1.59;74.61
61568;BME280;47462;59.172;17.196;2024-03-17T07:30:33;101502.81;;;-1.69;74.57
61568;BME280;47462;59.172;17.196;2024-03-17T07:32:58;101505.97;;;-1.76;74.69
61568;BME280;47462;59.172;17.196;2024-03-17T07:35:24;101510.16;;;-1.78;74.90
61568;BME280;47462;59.172;17.196;2024-03-17T07:37:50;101521.47;;;-1.72;74.53
61568;BME280;47462;59.172;17.196;2024-03-17T07:40:16;101533.88;;;-1.58;74.96
61568;BME280;47462;59.172;17.196;2024-03-17T07:42:42;101544.03;;;-1.36;74.49
61568;BME280;47462;59.172;17.196;2024-03-17T07:45:07;101530.78;;;-1.24;73.54
61568;BME280;47462;59.172;17.196;2024-03-17T07:47:33;101538.78;;;-1.15;73.45
61568;BME280;47462;59.172;17.196;2024-03-17T07:50:04;101543.69;;;-0.94;73.03
61568;BME280;47462;59.172;17.196;2024-03-17T07:52:31;101538.16;;;-0.80;72.14
61568;BME280;47462;59.172;17.196;2024-03-17T07:54:57;101544.47;;;-0.69;71.42
61568;BME280;47462;59.172;17.196;2024-03-17T07:57:22;101534.91;;;-0.75;70.86
61568;BME280;47462;59.172;17.196;2024-03-17T07:59:51;101557.19;;;-0.72;70.93
61568;BME280;47462;59.172;17.196;2024-03-17T08:02:17;101557.03;;;-0.77;72.25
61568;BME280;47462;59.172;17.196;2024-03-17T08:04:43;101559.66;;;-0.75;71.63
61568;BME280;47462;59.172;17.196;2024-03-17T08:07:12;101566.44;;;-0.77;71.46
61568;BME280;47462;59.172;17.196;2024-03-17T08:09:37;101580.09;;;-0.77;70.88
61568;BME280;47462;59.172;17.196;2024-03-17T08:12:02;101595.63;;;-0.72;70.99
61568;BME280;47462;59.172;17.196;2024-03-17T08:14:30;101592.59;;;-0.60;71.07
61568;BME280;47462;59.172;17.196;2024-03-17T08:16:56;101590.72;;;-0.66;70.83
61568;BME280;47462;59.172;17.196;2024-03-17T08:19:21;101603.75;;;-0.60;71.05
61568;BME280;47462;59.172;17.196;2024-03-17T08:21:47;101606.41;;;-0.57;71.07
61568;BME280;47462;59.172;17.196;2024-03-17T08:24:13;101610.97;;;-0.46;70.51
61568;BME280;47462;59.172;17.196;2024-03-17T08:26:45;101610.94;;;-0.19;70.80
61568;BME280;47462;59.172;17.196;2024-03-17T08:29:11;101601.53;;;-0.19;70.09
61568;BME280;47462;59.172;17.196;2024-03-17T08:31:38;101619.56;;;-0.17;69.83
61568;BME280;47462;59.172;17.196;2024-03-17T08:34:03;101636.59;;;-0.19;70.02
61568;BME280;47462;59.172;17.196;2024-03-17T08:36:29;101633.19;;;-0.20;69.41
61568;BME280;47462;59.172;17.196;2024-03-17T08:38:55;101643.97;;;-0.30;69.73
61568;BME280;47462;59.172;17.196;2024-03-17T08:41:20;101638.84;;;-0.30;69.87
61568;BME280;47462;59.172;17.196;2024-03-17T08:43:46;101644.22;;;-0.22;69.40
61568;BME280;47462;59.172;17.196;2024-03-17T08:46:12;101640.50;;;-0.03;69.71
61568;BME280;47462;59.172;17.196;2024-03-17T08:48:40;101641.44;;;-0.01;67.97
61568;BME280;47462;59.172;17.196;2024-03-17T08:51:08;101658.13;;;0.15;67.94
61568;BME280;47462;59.172;17.196;2024-03-17T08:53:35;101656.72;;;0.25;68.60
61568;BME280;47462;59.172;17.196;2024-03-17T08:56:04;101656.50;;;0.47;67.48
61568;BME280;47462;59.172;17.196;2024-03-17T08:58:31;101639.28;;;0.43;66.32
61568;BME280;47462;59.172;17.196;2024-03-17T09:00:56;101659.56;;;0.34;65.10
61568;BME280;47462;59.172;17.196;2024-03-17T09:03:22;101668.25;;;0.39;65.46
61568;BME280;47462;59.172;17.196;2024-03-17T09:05:48;101659.91;;;0.46;64.80
61568;BME280;47462;59.172;17.196;2024-03-17T09:08:18;101666.81;;;0.49;63.79
61568;BME280;47462;59.172;17.196;2024-03-17T09:10:48;101683.09;;;0.49;63.66
61568;BME280;47462;59.172;17.196;2024-03-17T09:13:15;101677.34;;;0.58;64.27
61568;BME280;47462;59.172;17.196;2024-03-17T09:15:53;101690.81;;;0.49;64.54
61568;BME280;47462;59.172;17.196;2024-03-17T09:18:19;101701.34;;;0.59;64.24
61568;BME280;47462;59.172;17.196;2024-03-17T09:20:55;101686.91;;;0.64;62.82
61568;BME280;47462;59.172;17.196;2024-03-17T09:23:20;101702.50;;;0.70;63.79
61568;BME280;47462;59.172;17.196;2024-03-17T09:25:57;101706.97;;;0.76;62.94
61568;BME280;47462;59.172;17.196;2024-03-17T09:28:24;101723.47;;;0.85;64.27
61568;BME280;47462;59.172;17.196;2024-03-17T09:30:50;101719.41;;;0.92;63.50
61568;BME280;47462;59.172;17.196;2024-03-17T09:33:21;101715.66;;;0.81;62.15
61568;BME280;47462;59.172;17.196;2024-03-17T09:36:00;101727.84;;;0.88;62.81
61568;BME280;47462;59.172;17.196;2024-03-17T09:38:27;101727.38;;;0.71;62.73
61568;BME280;47462;59.172;17.196;2024-03-17T09:40:54;101737.75;;;0.74;63.08
61568;BME280;47462;59.172;17.196;2024-03-17T09:43:29;101737.31;;;0.89;62.58
61568;BME280;47462;59.172;17.196;2024-03-17T09:46:03;101738.28;;;0.94;62.29
61568;BME280;47462;59.172;17.196;2024-03-17T09:48:29;101749.91;;;1.12;63.11
61568;BME280;47462;59.172;17.196;2024-03-17T09:51:02;101743.44;;;1.26;62.35
61568;BME280;47462;59.172;17.196;2024-03-17T09:53:30;101760.63;;;1.29;62.41
61568;BME280;47462;59.172;17.196;2024-03-17T09:56:11;101761.66;;;1.34;62.60
61568;BME280;47462;59.172;17.196;2024-03-17T09:58:38;101761.81;;;1.40;61.46
61568;BME280;47462;59.172;17.196;2024-03-17T10:01:04;101774.91;;;1.49;61.17
61568;BME280;47462;59.172;17.196;2024-03-17T10:03:48;101774.63;;;1.72;62.08
61568;BME280;47462;59.172;17.196;2024-03-17T10:06:24;101785.94;;;1.78;61.90
61568;BME280;47462;59.172;17.196;2024-03-17T10:08:57;101783.63;;;1.56;59.00
61568;BME280;47462;59.172;17.196;2024-03-17T10:11:25;101789.28;;;1.41;60.36
61568;BME280;47462;59.172;17.196;2024-03-17T10:14:02;101804.63;;;1.38;60.32
61568;BME280;47462;59.172;17.196;2024-03-17T10:16:30;101802.75;;;1.32;60.39
61568;BME280;47462;59.172;17.196;2024-03-17T10:21:46;101822.22;;;1.24;60.50
61568;BME280;47462;59.172;17.196;2024-03-17T10:24:24;101826.41;;;1.20;60.15
61568;BME280;47462;59.172;17.196;2024-03-17T10:26:56;101829.75;;;1.48;59.81
61568;BME280;47462;59.172;17.196;2024-03-17T10:29:27;101841.66;;;1.76;59.59
61568;BME280;47462;59.172;17.196;2024-03-17T10:34:24;101836.22;;;1.66;58.73
61568;BME280;47462;59.172;17.196;2024-03-17T10:36:52;101855.25;;;1.40;57.53
61568;BME280;47462;59.172;17.196;2024-03-17T10:39:26;101851.91;;;1.43;57.34
61568;BME280;47462;59.172;17.196;2024-03-17T10:42:03;101852.81;;;1.45;57.68
61568;BME280;47462;59.172;17.196;2024-03-17T10:44:31;101862.66;;;1.60;58.79
61568;BME280;47462;59.172;17.196;2024-03-17T10:46:59;101856.97;;;1.72;57.66
61568;BME280;47462;59.172;17.196;2024-03-17T10:49:31;101871.44;;;1.68;55.99
61568;BME280;47462;59.172;17.196;2024-03-17T10:52:01;101862.38;;;1.49;54.53
61568;BME280;47462;59.172;17.196;2024-03-17T10:54:34;101869.31;;;1.52;55.07
61568;BME280;47462;59.172;17.196;2024-03-17T10:59:41;101850.78;;;1.65;55.26
61568;BME280;47462;59.172;17.196;2024-03-17T11:02:25;101881.13;;;1.77;55.78
61568;BME280;47462;59.172;17.196;2024-03-17T11:04:55;101881.34;;;1.86;55.02
61568;BME280;47462;59.172;17.196;2024-03-17T11:07:22;101891.56;;;1.83;54.63
61568;BME280;47462;59.172;17.196;2024-03-17T11:09:51;101884.50;;;1.76;54.38
61568;BME280;47462;59.172;17.196;2024-03-17T11:20:42;101916.72;;;2.27;51.96
61568;BME280;47462;59.172;17.196;2024-03-17T11:23:09;101910.94;;;2.37;51.34
61568;BME280;47462;59.172;17.196;2024-03-17T11:25:38;101913.31;;;2.28;51.41
61568;BME280;47462;59.172;17.196;2024-03-17T11:28:09;101924.72;;;2.38;51.70
61568;BME280;47462;59.172;17.196;2024-03-17T11:31:42;101932.22;;;2.63;52.84
61568;BME280;47462;59.172;17.196;2024-03-17T11:38:55;101938.28;;;2.65;54.04
61568;BME280;47462;59.172;17.196;2024-03-17T11:46:59;101960.41;;;1.90;54.39
61568;BME280;47462;59.172;17.196;2024-03-17T11:52:09;101961.03;;;2.13;52.98
61568;BME280;47462;59.172;17.196;2024-03-17T11:54:38;101950.94;;;2.21;54.22
61568;BME280;47462;59.172;17.196;2024-03-17T11:59:38;101961.16;;;2.18;55.14
61568;BME280;47462;59.172;17.196;2024-03-17T12:02:27;101963.19;;;1.98;54.68
61568;BME280;47462;59.172;17.196;2024-03-17T12:04:57;101963.81;;;1.89;54.45
61568;BME280;47462;59.172;17.196;2024-03-17T12:07:23;101979.75;;;1.76;55.05
61568;BME280;47462;59.172;17.196;2024-03-17T12:09:50;101984.94;;;1.77;55.11
61568;BME280;47462;59.172;17.196;2024-03-17T12:12:19;101980.38;;;1.67;55.79
61568;BME280;47462;59.172;17.196;2024-03-17T12:14:45;101998.97;;;1.58;55.44
61568;BME280;47462;59.172;17.196;2024-03-17T12:17:13;101994.66;;;1.57;53.76
61568;BME280;47462;59.172;17.196;2024-03-17T12:19:40;101992.44;;;1.70;52.97
61568;BME280;47462;59.172;17.196;2024-03-17T12:22:15;101992.50;;;2.03;53.27
61568;BME280;47462;59.172;17.196;2024-03-17T12:24:44;101993.13;;;1.94;52.64
61568;BME280;47462;59.172;17.196;2024-03-17T12:27:17;102008.13;;;1.79;55.42
61568;BME280;47462;59.172;17.196;2024-03-17T12:29:43;102010.59;;;1.44;56.74
61568;BME280;47462;59.172;17.196;2024-03-17T12:32:12;102006.91;;;1.66;57.62
61568;BME280;47462;59.172;17.196;2024-03-17T12:34:38;102002.91;;;1.76;57.22
61568;BME280;47462;59.172;17.196;2024-03-17T12:37:05;102010.88;;;1.85;57.08
61568;BME280;47462;59.172;17.196;2024-03-17T12:39:33;102003.41;;;1.94;56.42
61568;BME280;47462;59.172;17.196;2024-03-17T12:42:12;101995.19;;;2.40;54.76
61568;BME280;47462;59.172;17.196;2024-03-17T12:44:52;102018.28;;;2.37;54.33
61568;BME280;47462;59.172;17.196;2024-03-17T12:47:23;102018.91;;;2.28;52.95
61568;BME280;47462;59.172;17.196;2024-03-17T12:52:24;102009.25;;;2.53;53.31
61568;BME280;47462;59.172;17.196;2024-03-17T12:57:52;102021.38;;;2.92;51.63
61568;BME280;47462;59.172;17.196;2024-03-17T13:00:36;101999.47;;;2.73;52.71
61568;BME280;47462;59.172;17.196;2024-03-17T13:03:07;102008.44;;;2.22;54.04
61568;BME280;47462;59.172;17.196;2024-03-17T13:05:36;102037.59;;;1.89;55.67
61568;BME280;47462;59.172;17.196;2024-03-17T13:08:02;102029.94;;;1.90;55.61
61568;BME280;47462;59.172;17.196;2024-03-17T13:10:29;102033.28;;;1.59;55.19
61568;BME280;47462;59.172;17.196;2024-03-17T13:13:05;102032.69;;;1.39;56.62
61568;BME280;47462;59.172;17.196;2024-03-17T13:15:33;102031.16;;;1.44;56.31
61568;BME280;47462;59.172;17.196;2024-03-17T13:18:02;102047.56;;;1.20;54.10
61568;BME280;47462;59.172;17.196;2024-03-17T13:20:32;102040.00;;;1.25;55.71
61568;BME280;47462;59.172;17.196;2024-03-17T13:22:58;102034.56;;;1.43;55.45
61568;BME280;47462;59.172;17.196;2024-03-17T13:25:26;102041.63;;;1.50;54.43
61568;BME280;47462;59.172;17.196;2024-03-17T13:27:55;102050.13;;;1.48;53.68